sensor_id;sensor_type;location;lat;lon;timestamp;P1;durP1;ratioP1;P2;durP2;ratioP2
1346;SDS011;667;48.796;9.480;2022-12-18T00:01:51;30.03;;;17.17;;
1346;SDS011;667;48.796;9.480;2022-12-18T00:04:21;28.60;;;16.97;;
1346;SDS011;667;48.796;9.480;2022-12-18T00:06:48;28.98;;;17.02;;
1346;SDS011;667;48.796;9.480;2022-12-18T00:09:14;27.70;;;16.80;;
1346;SDS011;667;48.796;9.480;2022-12-18T00:11:40;23.77;;;14.20;;
1346;SDS011;667;48.796;9.480;2022-12-18T00:14:05;27.17;;;15.80;;
1346;SDS011;667;48.796;9.480;2022-12-18T00:16:31;27.43;;;16.30;;
1346;SDS011;667;48.796;9.480;2022-12-18T00:18:58;33.63;;;17.27;;
1346;SDS011;667;48.796;9.480;2022-12-18T00:21:25;33.47;;;18.42;;
1346;SDS011;667;48.796;9.480;2022-12-18T00:23:52;26.65;;;16.27;;
1346;SDS011;667;48.796;9.480;2022-12-18T00:28:45;26.33;;;17.92;;
1346;SDS011;667;48.796;9.480;2022-12-18T00:31:15;29.87;;;18.63;;
1346;SDS011;667;48.796;9.480;2022-12-18T00:33:43;34.35;;;19.70;;
1346;SDS011;667;48.796;9.480;2022-12-18T00:36:09;28.80;;;18.07;;
1346;SDS011;667;48.796;9.480;2022-12-18T00:38:40;30.23;;;20.50;;
1346;SDS011;667;48.796;9.480;2022-12-18T00:41:06;32.58;;;19.58;;
1346;SDS011;667;48.796;9.480;2022-12-18T00:43:36;32.03;;;19.58;;
1346;SDS011;667;48.796;9.480;2022-12-18T00:46:02;27.08;;;18.70;;
1346;SDS011;667;48.796;9.480;2022-12-18T00:48:28;30.92;;;18.50;;
1346;SDS011;667;48.796;9.480;2022-12-18T00:50:54;33.70;;;18.07;;
1346;SDS011;667;48.796;9.480;2022-12-18T00:53:19;28.47;;;18.53;;
1346;SDS011;667;48.796;9.480;2022-12-18T00:55:45;31.10;;;19.98;;
1346;SDS011;667;48.796;9.480;2022-12-18T00:58:12;34.57;;;18.93;;
1346;SDS011;667;48.796;9.480;2022-12-18T01:00:39;31.02;;;18.35;;
1346;SDS011;667;48.796;9.480;2022-12-18T01:03:05;34.40;;;18.63;;
1346;SDS011;667;48.796;9.480;2022-12-18T01:05:31;31.13;;;18.40;;
1346;SDS011;667;48.796;9.480;2022-12-18T01:07:56;30.47;;;18.97;;
1346;SDS011;667;48.796;9.480;2022-12-18T01:10:22;31.63;;;18.80;;
1346;SDS011;667;48.796;9.480;2022-12-18T01:12:49;28.90;;;18.30;;
1346;SDS011;667;48.796;9.480;2022-12-18T01:15:15;37.30;;;18.73;;
1346;SDS011;667;48.796;9.480;2022-12-18T01:17:41;25.50;;;17.00;;
1346;SDS011;667;48.796;9.480;2022-12-18T01:20:07;26.85;;;18.25;;
1346;SDS011;667;48.796;9.480;2022-12-18T01:22:35;30.30;;;18.95;;
1346;SDS011;667;48.796;9.480;2022-12-18T01:25:00;33.15;;;19.58;;
1346;SDS011;667;48.796;9.480;2022-12-18T01:27:26;30.38;;;19.95;;
1346;SDS011;667;48.796;9.480;2022-12-18T01:29:52;28.80;;;16.93;;
1346;SDS011;667;48.796;9.480;2022-12-18T01:32:20;29.42;;;17.38;;
1346;SDS011;667;48.796;9.480;2022-12-18T01:34:46;31.67;;;18.25;;
1346;SDS011;667;48.796;9.480;2022-12-18T01:37:12;28.57;;;19.27;;
1346;SDS011;667;48.796;9.480;2022-12-18T01:39:37;31.37;;;18.37;;
1346;SDS011;667;48.796;9.480;2022-12-18T01:42:05;26.50;;;18.02;;
1346;SDS011;667;48.796;9.480;2022-12-18T01:47:18;29.45;;;17.80;;
1346;SDS011;667;48.796;9.480;2022-12-18T01:49:45;24.90;;;16.05;;
1346;SDS011;667;48.796;9.480;2022-12-18T01:52:11;36.53;;;18.60;;
1346;SDS011;667;48.796;9.480;2022-12-18T01:54:36;29.43;;;16.77;;
1346;SDS011;667;48.796;9.480;2022-12-18T01:57:02;32.90;;;18.63;;
1346;SDS011;667;48.796;9.480;2022-12-18T01:59:28;29.87;;;17.10;;
1346;SDS011;667;48.796;9.480;2022-12-18T02:01:56;34.17;;;19.33;;
1346;SDS011;667;48.796;9.480;2022-12-18T02:04:22;32.50;;;16.27;;
1346;SDS011;667;48.796;9.480;2022-12-18T02:06:51;35.70;;;17.58;;
1346;SDS011;667;48.796;9.480;2022-12-18T02:09:32;27.10;;;16.02;;
1346;SDS011;667;48.796;9.480;2022-12-18T02:12:07;25.85;;;17.42;;
1346;SDS011;667;48.796;9.480;2022-12-18T02:14:43;27.98;;;16.42;;
1346;SDS011;667;48.796;9.480;2022-12-18T02:17:21;30.33;;;17.45;;
1346;SDS011;667;48.796;9.480;2022-12-18T02:22:49;32.50;;;17.23;;
1346;SDS011;667;48.796;9.480;2022-12-18T02:28:23;23.88;;;15.40;;
1346;SDS011;667;48.796;9.480;2022-12-18T02:30:53;22.58;;;13.85;;
1346;SDS011;667;48.796;9.480;2022-12-18T02:33:25;27.15;;;15.77;;
1346;SDS011;667;48.796;9.480;2022-12-18T02:35:52;24.02;;;16.27;;
1346;SDS011;667;48.796;9.480;2022-12-18T02:38:20;32.15;;;17.88;;
1346;SDS011;667;48.796;9.480;2022-12-18T02:40:46;27.30;;;16.60;;
1346;SDS011;667;48.796;9.480;2022-12-18T02:43:14;32.17;;;15.65;;
1346;SDS011;667;48.796;9.480;2022-12-18T02:45:52;29.75;;;15.90;;
1346;SDS011;667;48.796;9.480;2022-12-18T02:48:24;27.88;;;16.10;;
1346;SDS011;667;48.796;9.480;2022-12-18T02:53:56;28.08;;;16.45;;
1346;SDS011;667;48.796;9.480;2022-12-18T02:56:29;21.08;;;14.50;;
1346;SDS011;667;48.796;9.480;2022-12-18T02:59:06;26.48;;;16.08;;
1346;SDS011;667;48.796;9.480;2022-12-18T03:04:25;32.20;;;16.42;;
1346;SDS011;667;48.796;9.480;2022-12-18T03:06:59;29.35;;;15.95;;
1346;SDS011;667;48.796;9.480;2022-12-18T03:09:31;28.58;;;16.45;;
1346;SDS011;667;48.796;9.480;2022-12-18T03:12:02;27.38;;;15.15;;
1346;SDS011;667;48.796;9.480;2022-12-18T03:17:40;25.35;;;14.05;;
1346;SDS011;667;48.796;9.480;2022-12-18T03:20:15;30.02;;;17.33;;
1346;SDS011;667;48.796;9.480;2022-12-18T03:22:44;27.33;;;15.00;;
1346;SDS011;667;48.796;9.480;2022-12-18T03:25:15;25.60;;;14.57;;
1346;SDS011;667;48.796;9.480;2022-12-18T03:27:45;22.58;;;14.68;;
1346;SDS011;667;48.796;9.480;2022-12-18T03:30:14;24.75;;;13.77;;
1346;SDS011;667;48.796;9.480;2022-12-18T03:32:48;25.20;;;14.55;;
1346;SDS011;667;48.796;9.480;2022-12-18T03:35:21;23.95;;;14.30;;
1346;SDS011;667;48.796;9.480;2022-12-18T03:37:51;24.63;;;14.68;;
1346;SDS011;667;48.796;9.480;2022-12-18T03:40:17;21.07;;;12.37;;
1346;SDS011;667;48.796;9.480;2022-12-18T03:42:46;23.85;;;13.65;;
1346;SDS011;667;48.796;9.480;2022-12-18T03:45:20;28.13;;;16.42;;
1346;SDS011;667;48.796;9.480;2022-12-18T03:48:01;28.00;;;14.32;;
1346;SDS011;667;48.796;9.480;2022-12-18T03:53:09;24.05;;;13.77;;
1346;SDS011;667;48.796;9.480;2022-12-18T03:55:47;26.25;;;14.40;;
1346;SDS011;667;48.796;9.480;2022-12-18T03:58:16;23.55;;;13.02;;
1346;SDS011;667;48.796;9.480;2022-12-18T04:00:44;26.83;;;14.25;;
1346;SDS011;667;48.796;9.480;2022-12-18T04:03:10;22.13;;;12.70;;
1346;SDS011;667;48.796;9.480;2022-12-18T04:05:38;20.83;;;13.85;;
1346;SDS011;667;48.796;9.480;2022-12-18T04:08:05;19.52;;;12.13;;
1346;SDS011;667;48.796;9.480;2022-12-18T04:10:31;19.53;;;12.20;;
1346;SDS011;667;48.796;9.480;2022-12-18T04:12:57;22.00;;;12.50;;
1346;SDS011;667;48.796;9.480;2022-12-18T04:15:23;19.92;;;11.07;;
1346;SDS011;667;48.796;9.480;2022-12-18T04:17:49;17.90;;;10.50;;
1346;SDS011;667;48.796;9.480;2022-12-18T04:20:15;20.05;;;11.75;;
1346;SDS011;667;48.796;9.480;2022-12-18T04:22:41;21.87;;;12.47;;
1346;SDS011;667;48.796;9.480;2022-12-18T04:25:07;20.97;;;11.50;;
1346;SDS011;667;48.796;9.480;2022-12-18T04:27:33;17.50;;;11.18;;
1346;SDS011;667;48.796;9.480;2022-12-18T04:29:59;16.50;;;10.70;;
1346;SDS011;667;48.796;9.480;2022-12-18T04:32:24;18.77;;;10.23;;
1346;SDS011;667;48.796;9.480;2022-12-18T04:34:50;16.30;;;9.80;;
1346;SDS011;667;48.796;9.480;2022-12-18T04:37:16;19.57;;;10.20;;
1346;SDS011;667;48.796;9.480;2022-12-18T04:39:41;25.20;;;13.17;;
1346;SDS011;667;48.796;9.480;2022-12-18T04:42:07;25.80;;;14.07;;
1346;SDS011;667;48.796;9.480;2022-12-18T04:44:32;20.60;;;12.83;;
1346;SDS011;667;48.796;9.480;2022-12-18T04:46:58;16.50;;;10.07;;
1346;SDS011;667;48.796;9.480;2022-12-18T04:49:23;20.43;;;11.10;;
1346;SDS011;667;48.796;9.480;2022-12-18T04:51:49;17.90;;;10.00;;
1346;SDS011;667;48.796;9.480;2022-12-18T04:54:15;17.10;;;10.47;;
1346;SDS011;667;48.796;9.480;2022-12-18T04:56:40;16.87;;;10.23;;
1346;SDS011;667;48.796;9.480;2022-12-18T04:59:06;15.87;;;10.97;;
1346;SDS011;667;48.796;9.480;2022-12-18T05:01:34;23.60;;;10.67;;
1346;SDS011;667;48.796;9.480;2022-12-18T05:04:00;19.58;;;10.05;;
1346;SDS011;667;48.796;9.480;2022-12-18T05:06:26;18.33;;;10.27;;
1346;SDS011;667;48.796;9.480;2022-12-18T05:08:52;16.97;;;11.47;;
1346;SDS011;667;48.796;9.480;2022-12-18T05:11:17;23.13;;;11.27;;
1346;SDS011;667;48.796;9.480;2022-12-18T05:13:43;18.93;;;10.90;;
1346;SDS011;667;48.796;9.480;2022-12-18T05:16:10;21.42;;;11.02;;
1346;SDS011;667;48.796;9.480;2022-12-18T05:18:36;19.63;;;10.50;;
1346;SDS011;667;48.796;9.480;2022-12-18T05:21:02;15.10;;;10.38;;
1346;SDS011;667;48.796;9.480;2022-12-18T05:23:28;18.55;;;11.15;;
1346;SDS011;667;48.796;9.480;2022-12-18T05:25:55;21.77;;;12.37;;
1346;SDS011;667;48.796;9.480;2022-12-18T05:28:21;17.85;;;10.00;;
1346;SDS011;667;48.796;9.480;2022-12-18T05:30:49;20.17;;;11.43;;
1346;SDS011;667;48.796;9.480;2022-12-18T05:33:15;15.65;;;10.07;;
1346;SDS011;667;48.796;9.480;2022-12-18T05:35:41;18.00;;;10.90;;
1346;SDS011;667;48.796;9.480;2022-12-18T05:38:07;14.93;;;9.57;;
1346;SDS011;667;48.796;9.480;2022-12-18T05:40:32;18.60;;;10.33;;
1346;SDS011;667;48.796;9.480;2022-12-18T05:42:58;20.67;;;11.87;;
1346;SDS011;667;48.796;9.480;2022-12-18T05:45:23;17.80;;;9.70;;
1346;SDS011;667;48.796;9.480;2022-12-18T05:47:49;24.40;;;11.03;;
1346;SDS011;667;48.796;9.480;2022-12-18T05:50:15;21.97;;;10.83;;
1346;SDS011;667;48.796;9.480;2022-12-18T05:52:40;18.37;;;10.40;;
1346;SDS011;667;48.796;9.480;2022-12-18T05:55:06;19.10;;;11.30;;
1346;SDS011;667;48.796;9.480;2022-12-18T05:57:32;18.97;;;10.60;;
1346;SDS011;667;48.796;9.480;2022-12-18T05:59:57;20.63;;;11.40;;
1346;SDS011;667;48.796;9.480;2022-12-18T06:02:23;21.60;;;11.90;;
1346;SDS011;667;48.796;9.480;2022-12-18T06:04:48;21.60;;;11.37;;
1346;SDS011;667;48.796;9.480;2022-12-18T06:07:14;19.13;;;9.80;;
1346;SDS011;667;48.796;9.480;2022-12-18T06:09:39;21.77;;;11.53;;
1346;SDS011;667;48.796;9.480;2022-12-18T06:12:05;19.60;;;11.20;;
1346;SDS011;667;48.796;9.480;2022-12-18T06:14:31;18.20;;;10.53;;
1346;SDS011;667;48.796;9.480;2022-12-18T06:16:56;19.20;;;11.93;;
1346;SDS011;667;48.796;9.480;2022-12-18T06:19:22;20.70;;;11.90;;
1346;SDS011;667;48.796;9.480;2022-12-18T06:21:47;17.63;;;10.97;;
1346;SDS011;667;48.796;9.480;2022-12-18T06:24:14;22.15;;;12.80;;
1346;SDS011;667;48.796;9.480;2022-12-18T06:26:39;20.20;;;11.87;;
1346;SDS011;667;48.796;9.480;2022-12-18T06:29:06;23.45;;;13.85;;
1346;SDS011;667;48.796;9.480;2022-12-18T06:31:31;18.27;;;10.67;;
1346;SDS011;667;48.796;9.480;2022-12-18T06:33:57;21.07;;;11.43;;
1346;SDS011;667;48.796;9.480;2022-12-18T06:36:23;27.83;;;12.53;;
1346;SDS011;667;48.796;9.480;2022-12-18T06:38:48;22.37;;;11.90;;
1346;SDS011;667;48.796;9.480;2022-12-18T06:41:15;26.50;;;13.30;;
1346;SDS011;667;48.796;9.480;2022-12-18T06:43:43;33.80;;;18.02;;
1346;SDS011;667;48.796;9.480;2022-12-18T06:46:09;33.70;;;17.23;;
1346;SDS011;667;48.796;9.480;2022-12-18T06:48:35;23.65;;;12.90;;
1346;SDS011;667;48.796;9.480;2022-12-18T06:51:01;30.30;;;15.17;;
1346;SDS011;667;48.796;9.480;2022-12-18T06:53:26;31.30;;;15.87;;
1346;SDS011;667;48.796;9.480;2022-12-18T06:55:52;34.40;;;16.77;;
1346;SDS011;667;48.796;9.480;2022-12-18T06:58:24;29.92;;;15.60;;
1346;SDS011;667;48.796;9.480;2022-12-18T07:00:49;24.93;;;13.73;;
1346;SDS011;667;48.796;9.480;2022-12-18T07:03:15;22.37;;;12.63;;
1346;SDS011;667;48.796;9.480;2022-12-18T07:05:40;20.10;;;12.50;;
1346;SDS011;667;48.796;9.480;2022-12-18T07:08:06;22.90;;;11.87;;
1346;SDS011;667;48.796;9.480;2022-12-18T07:10:31;25.03;;;12.83;;
1346;SDS011;667;48.796;9.480;2022-12-18T07:12:57;15.10;;;11.07;;
1346;SDS011;667;48.796;9.480;2022-12-18T07:15:22;23.10;;;12.67;;
1346;SDS011;667;48.796;9.480;2022-12-18T07:17:48;24.37;;;13.20;;
1346;SDS011;667;48.796;9.480;2022-12-18T07:20:13;19.27;;;12.17;;
1346;SDS011;667;48.796;9.480;2022-12-18T07:22:39;23.60;;;12.97;;
1346;SDS011;667;48.796;9.480;2022-12-18T07:25:05;26.00;;;13.10;;
1346;SDS011;667;48.796;9.480;2022-12-18T07:27:31;22.33;;;12.93;;
1346;SDS011;667;48.796;9.480;2022-12-18T07:29:57;22.70;;;12.90;;
1346;SDS011;667;48.796;9.480;2022-12-18T07:32:22;23.07;;;12.70;;
1346;SDS011;667;48.796;9.480;2022-12-18T07:34:48;21.73;;;13.53;;
1346;SDS011;667;48.796;9.480;2022-12-18T07:37:13;20.70;;;12.70;;
1346;SDS011;667;48.796;9.480;2022-12-18T07:39:39;23.07;;;13.23;;
1346;SDS011;667;48.796;9.480;2022-12-18T07:42:08;29.77;;;17.27;;
1346;SDS011;667;48.796;9.480;2022-12-18T07:44:51;27.23;;;15.93;;
1346;SDS011;667;48.796;9.480;2022-12-18T07:47:17;21.43;;;12.60;;
1346;SDS011;667;48.796;9.480;2022-12-18T07:49:43;22.90;;;12.80;;
1346;SDS011;667;48.796;9.480;2022-12-18T07:52:08;24.67;;;13.63;;
1346;SDS011;667;48.796;9.480;2022-12-18T07:54:34;21.05;;;12.98;;
1346;SDS011;667;48.796;9.480;2022-12-18T07:57:00;23.90;;;13.77;;
1346;SDS011;667;48.796;9.480;2022-12-18T07:59:25;21.90;;;12.70;;
1346;SDS011;667;48.796;9.480;2022-12-18T08:01:51;25.67;;;12.57;;
1346;SDS011;667;48.796;9.480;2022-12-18T08:04:16;22.20;;;12.10;;
1346;SDS011;667;48.796;9.480;2022-12-18T08:06:42;21.73;;;12.67;;
1346;SDS011;667;48.796;9.480;2022-12-18T08:09:09;22.43;;;12.40;;
1346;SDS011;667;48.796;9.480;2022-12-18T08:11:35;26.63;;;12.65;;
1346;SDS011;667;48.796;9.480;2022-12-18T08:14:00;21.43;;;12.13;;
1346;SDS011;667;48.796;9.480;2022-12-18T08:16:26;19.90;;;11.77;;
1346;SDS011;667;48.796;9.480;2022-12-18T08:18:52;23.13;;;11.45;;
1346;SDS011;667;48.796;9.480;2022-12-18T08:21:19;24.02;;;13.45;;
1346;SDS011;667;48.796;9.480;2022-12-18T08:23:47;25.98;;;14.88;;
1346;SDS011;667;48.796;9.480;2022-12-18T08:26:13;17.80;;;12.98;;
1346;SDS011;667;48.796;9.480;2022-12-18T08:28:39;22.30;;;13.30;;
1346;SDS011;667;48.796;9.480;2022-12-18T08:31:05;22.37;;;12.80;;
1346;SDS011;667;48.796;9.480;2022-12-18T08:33:31;26.88;;;14.73;;
1346;SDS011;667;48.796;9.480;2022-12-18T08:35:58;21.92;;;13.40;;
1346;SDS011;667;48.796;9.480;2022-12-18T08:38:24;23.95;;;13.10;;
1346;SDS011;667;48.796;9.480;2022-12-18T08:40:57;30.90;;;14.07;;
1346;SDS011;667;48.796;9.480;2022-12-18T08:43:27;24.48;;;13.45;;
1346;SDS011;667;48.796;9.480;2022-12-18T08:46:15;28.70;;;14.10;;
1346;SDS011;667;48.796;9.480;2022-12-18T08:48:42;25.77;;;14.50;;
1346;SDS011;667;48.796;9.480;2022-12-18T08:51:08;25.02;;;13.25;;
1346;SDS011;667;48.796;9.480;2022-12-18T08:53:37;24.85;;;14.52;;
1346;SDS011;667;48.796;9.480;2022-12-18T08:56:03;26.80;;;14.93;;
1346;SDS011;667;48.796;9.480;2022-12-18T08:58:29;29.08;;;14.73;;
1346;SDS011;667;48.796;9.480;2022-12-18T09:01:05;26.50;;;15.17;;
1346;SDS011;667;48.796;9.480;2022-12-18T09:03:34;27.45;;;15.07;;
1346;SDS011;667;48.796;9.480;2022-12-18T09:05:59;29.47;;;13.80;;
1346;SDS011;667;48.796;9.480;2022-12-18T09:08:25;21.83;;;13.83;;
1346;SDS011;667;48.796;9.480;2022-12-18T09:10:51;24.98;;;15.48;;
1346;SDS011;667;48.796;9.480;2022-12-18T09:13:17;27.77;;;17.03;;
1346;SDS011;667;48.796;9.480;2022-12-18T09:15:47;38.58;;;24.25;;
1346;SDS011;667;48.796;9.480;2022-12-18T09:18:15;45.63;;;25.73;;
1346;SDS011;667;48.796;9.480;2022-12-18T09:20:42;49.10;;;30.02;;
1346;SDS011;667;48.796;9.480;2022-12-18T09:23:08;40.13;;;22.65;;
1346;SDS011;667;48.796;9.480;2022-12-18T09:25:34;31.55;;;20.50;;
1346;SDS011;667;48.796;9.480;2022-12-18T09:28:01;33.58;;;20.63;;
1346;SDS011;667;48.796;9.480;2022-12-18T09:30:41;39.03;;;24.48;;
1346;SDS011;667;48.796;9.480;2022-12-18T09:33:09;35.42;;;21.35;;
1346;SDS011;667;48.796;9.480;2022-12-18T09:35:41;32.13;;;21.50;;
1346;SDS011;667;48.796;9.480;2022-12-18T09:38:08;30.08;;;20.25;;
1346;SDS011;667;48.796;9.480;2022-12-18T09:40:41;26.75;;;15.90;;
1346;SDS011;667;48.796;9.480;2022-12-18T09:44:10;29.80;;;20.92;;
1346;SDS011;667;48.796;9.480;2022-12-18T09:46:11;31.25;;;20.90;;
1346;SDS011;667;48.796;9.480;2022-12-18T09:48:44;33.55;;;23.35;;
1346;SDS011;667;48.796;9.480;2022-12-18T09:51:16;31.05;;;18.10;;
1346;SDS011;667;48.796;9.480;2022-12-18T09:53:47;27.13;;;19.40;;
1346;SDS011;667;48.796;9.480;2022-12-18T09:56:19;29.27;;;18.25;;
1346;SDS011;667;48.796;9.480;2022-12-18T10:01:26;28.52;;;19.60;;
1346;SDS011;667;48.796;9.480;2022-12-18T10:03:52;30.10;;;22.55;;
1346;SDS011;667;48.796;9.480;2022-12-18T10:14:57;33.17;;;24.30;;
1346;SDS011;667;48.796;9.480;2022-12-18T10:17:58;33.38;;;22.02;;
1346;SDS011;667;48.796;9.480;2022-12-18T10:20:47;31.23;;;21.25;;
1346;SDS011;667;48.796;9.480;2022-12-18T10:26:10;33.08;;;22.05;;
1346;SDS011;667;48.796;9.480;2022-12-18T10:28:38;33.20;;;22.83;;
1346;SDS011;667;48.796;9.480;2022-12-18T10:31:13;33.60;;;23.17;;
1346;SDS011;667;48.796;9.480;2022-12-18T10:33:42;34.10;;;22.38;;
1346;SDS011;667;48.796;9.480;2022-12-18T10:36:08;29.33;;;23.55;;
1346;SDS011;667;48.796;9.480;2022-12-18T10:38:34;30.42;;;21.10;;
1346;SDS011;667;48.796;9.480;2022-12-18T10:41:33;32.17;;;22.47;;
1346;SDS011;667;48.796;9.480;2022-12-18T10:46:36;30.77;;;22.23;;
1346;SDS011;667;48.796;9.480;2022-12-18T10:49:02;30.00;;;21.70;;
1346;SDS011;667;48.796;9.480;2022-12-18T10:51:34;33.43;;;21.57;;
1346;SDS011;667;48.796;9.480;2022-12-18T10:54:03;31.85;;;22.02;;
1346;SDS011;667;48.796;9.480;2022-12-18T10:56:32;35.22;;;21.73;;
1346;SDS011;667;48.796;9.480;2022-12-18T10:59:03;30.88;;;21.67;;
1346;SDS011;667;48.796;9.480;2022-12-18T11:01:44;36.10;;;21.58;;
1346;SDS011;667;48.796;9.480;2022-12-18T11:04:15;34.85;;;21.05;;
1346;SDS011;667;48.796;9.480;2022-12-18T11:06:53;33.03;;;19.23;;
1346;SDS011;667;48.796;9.480;2022-12-18T11:09:24;31.30;;;20.02;;
1346;SDS011;667;48.796;9.480;2022-12-18T11:11:54;34.08;;;20.33;;
1346;SDS011;667;48.796;9.480;2022-12-18T11:16:53;29.63;;;19.65;;
1346;SDS011;667;48.796;9.480;2022-12-18T11:21:55;30.45;;;19.05;;
1346;SDS011;667;48.796;9.480;2022-12-18T11:24:29;34.07;;;21.27;;
1346;SDS011;667;48.796;9.480;2022-12-18T11:26:57;30.88;;;18.58;;
1346;SDS011;667;48.796;9.480;2022-12-18T11:29:32;35.22;;;20.42;;
1346;SDS011;667;48.796;9.480;2022-12-18T11:32:19;30.73;;;18.40;;
1346;SDS011;667;48.796;9.480;2022-12-18T11:34:52;34.95;;;19.00;;
1346;SDS011;667;48.796;9.480;2022-12-18T11:37:35;31.55;;;17.83;;
1346;SDS011;667;48.796;9.480;2022-12-18T11:40:10;32.07;;;20.07;;
1346;SDS011;667;48.796;9.480;2022-12-18T11:42:42;35.35;;;21.95;;
1346;SDS011;667;48.796;9.480;2022-12-18T11:45:34;32.38;;;20.40;;
1346;SDS011;667;48.796;9.480;2022-12-18T11:53:12;31.05;;;17.05;;
1346;SDS011;667;48.796;9.480;2022-12-18T11:58:23;32.38;;;19.42;;
1346;SDS011;667;48.796;9.480;2022-12-18T12:03:56;31.20;;;18.10;;
1346;SDS011;667;48.796;9.480;2022-12-18T12:09:20;31.90;;;19.10;;
1346;SDS011;667;48.796;9.480;2022-12-18T12:12:42;30.10;;;17.88;;
1346;SDS011;667;48.796;9.480;2022-12-18T12:15:03;32.55;;;17.38;;
1346;SDS011;667;48.796;9.480;2022-12-18T12:18:28;30.67;;;18.23;;
1346;SDS011;667;48.796;9.480;2022-12-18T12:23:50;31.42;;;18.00;;
1346;SDS011;667;48.796;9.480;2022-12-18T12:26:41;30.25;;;17.75;;
1346;SDS011;667;48.796;9.480;2022-12-18T12:32:12;28.67;;;17.40;;
1346;SDS011;667;48.796;9.480;2022-12-18T12:40:31;37.60;;;20.02;;
1346;SDS011;667;48.796;9.480;2022-12-18T12:43:18;31.10;;;17.83;;
1346;SDS011;667;48.796;9.480;2022-12-18T12:45:55;31.77;;;17.77;;
1346;SDS011;667;48.796;9.480;2022-12-18T12:51:21;34.08;;;18.25;;
1346;SDS011;667;48.796;9.480;2022-12-18T12:53:54;30.08;;;18.58;;
1346;SDS011;667;48.796;9.480;2022-12-18T12:56:22;30.42;;;18.08;;
1346;SDS011;667;48.796;9.480;2022-12-18T13:01:28;36.83;;;20.33;;
1346;SDS011;667;48.796;9.480;2022-12-18T13:09:10;30.45;;;18.70;;
1346;SDS011;667;48.796;9.480;2022-12-18T13:11:39;32.13;;;19.10;;
1346;SDS011;667;48.796;9.480;2022-12-18T13:19:47;31.10;;;17.42;;
1346;SDS011;667;48.796;9.480;2022-12-18T13:22:22;32.83;;;18.83;;
1346;SDS011;667;48.796;9.480;2022-12-18T13:24:50;32.90;;;18.27;;
1346;SDS011;667;48.796;9.480;2022-12-18T13:43:41;31.70;;;19.33;;
1346;SDS011;667;48.796;9.480;2022-12-18T13:51:54;31.48;;;18.17;;
1346;SDS011;667;48.796;9.480;2022-12-18T13:57:00;29.02;;;18.42;;
1346;SDS011;667;48.796;9.480;2022-12-18T13:59:26;32.25;;;17.63;;
1346;SDS011;667;48.796;9.480;2022-12-18T14:01:59;37.72;;;21.02;;
1346;SDS011;667;48.796;9.480;2022-12-18T14:04:31;30.08;;;19.63;;
1346;SDS011;667;48.796;9.480;2022-12-18T14:09:35;39.38;;;20.00;;
1346;SDS011;667;48.796;9.480;2022-12-18T14:12:05;35.53;;;19.30;;
1346;SDS011;667;48.796;9.480;2022-12-18T14:14:49;33.03;;;18.77;;
1346;SDS011;667;48.796;9.480;2022-12-18T14:17:17;33.63;;;20.60;;
1346;SDS011;667;48.796;9.480;2022-12-18T14:19:44;33.78;;;20.73;;
1346;SDS011;667;48.796;9.480;2022-12-18T14:22:22;36.53;;;20.42;;
1346;SDS011;667;48.796;9.480;2022-12-18T14:27:41;38.40;;;23.05;;
1346;SDS011;667;48.796;9.480;2022-12-18T14:30:43;37.42;;;19.52;;
1346;SDS011;667;48.796;9.480;2022-12-18T14:33:08;37.47;;;21.67;;
1346;SDS011;667;48.796;9.480;2022-12-18T14:35:40;36.08;;;21.20;;
1346;SDS011;667;48.796;9.480;2022-12-18T14:38:23;38.75;;;22.17;;
1346;SDS011;667;48.796;9.480;2022-12-18T14:41:01;38.78;;;22.80;;
1346;SDS011;667;48.796;9.480;2022-12-18T14:43:31;36.42;;;20.70;;
1346;SDS011;667;48.796;9.480;2022-12-18T14:45:58;34.35;;;19.52;;
1346;SDS011;667;48.796;9.480;2022-12-18T14:48:38;35.65;;;20.15;;
1346;SDS011;667;48.796;9.480;2022-12-18T14:51:15;33.20;;;20.30;;
1346;SDS011;667;48.796;9.480;2022-12-18T14:53:53;35.45;;;19.25;;
1346;SDS011;667;48.796;9.480;2022-12-18T15:01:29;32.13;;;19.05;;
1346;SDS011;667;48.796;9.480;2022-12-18T15:04:00;34.75;;;19.75;;
1346;SDS011;667;48.796;9.480;2022-12-18T15:08:58;39.75;;;21.77;;
1346;SDS011;667;48.796;9.480;2022-12-18T15:16:54;46.33;;;25.08;;
1346;SDS011;667;48.796;9.480;2022-12-18T15:19:21;42.17;;;23.58;;
1346;SDS011;667;48.796;9.480;2022-12-18T15:21:50;42.97;;;22.80;;
1346;SDS011;667;48.796;9.480;2022-12-18T15:24:20;36.03;;;21.13;;
1346;SDS011;667;48.796;9.480;2022-12-18T15:26:52;37.97;;;21.17;;
1346;SDS011;667;48.796;9.480;2022-12-18T15:29:21;38.17;;;21.05;;
1346;SDS011;667;48.796;9.480;2022-12-18T15:32:04;34.00;;;20.42;;
1346;SDS011;667;48.796;9.480;2022-12-18T15:34:30;40.30;;;23.20;;
1346;SDS011;667;48.796;9.480;2022-12-18T15:36:58;32.33;;;20.60;;
1346;SDS011;667;48.796;9.480;2022-12-18T15:39:24;32.27;;;18.20;;
1346;SDS011;667;48.796;9.480;2022-12-18T15:41:50;38.13;;;22.77;;
1346;SDS011;667;48.796;9.480;2022-12-18T15:44:36;33.17;;;19.50;;
1346;SDS011;667;48.796;9.480;2022-12-18T15:47:02;28.10;;;18.00;;
1346;SDS011;667;48.796;9.480;2022-12-18T15:49:27;26.77;;;17.40;;
1346;SDS011;667;48.796;9.480;2022-12-18T15:51:53;34.20;;;20.43;;
1346;SDS011;667;48.796;9.480;2022-12-18T15:54:22;35.03;;;20.55;;
1346;SDS011;667;48.796;9.480;2022-12-18T15:57:09;33.00;;;19.17;;
1346;SDS011;667;48.796;9.480;2022-12-18T15:59:47;32.42;;;18.83;;
1346;SDS011;667;48.796;9.480;2022-12-18T16:02:14;37.90;;;21.23;;
1346;SDS011;667;48.796;9.480;2022-12-18T16:04:42;32.35;;;19.55;;
1346;SDS011;667;48.796;9.480;2022-12-18T16:07:08;39.20;;;22.37;;
1346;SDS011;667;48.796;9.480;2022-12-18T16:09:35;37.10;;;20.02;;
1346;SDS011;667;48.796;9.480;2022-12-18T16:12:01;32.35;;;20.05;;
1346;SDS011;667;48.796;9.480;2022-12-18T16:14:29;38.03;;;23.00;;
1346;SDS011;667;48.796;9.480;2022-12-18T16:16:56;30.52;;;19.40;;
1346;SDS011;667;48.796;9.480;2022-12-18T16:19:23;35.47;;;20.08;;
1346;SDS011;667;48.796;9.480;2022-12-18T16:21:50;53.05;;;31.73;;
1346;SDS011;667;48.796;9.480;2022-12-18T16:24:19;47.22;;;27.60;;
1346;SDS011;667;48.796;9.480;2022-12-18T16:26:49;42.15;;;24.67;;
1346;SDS011;667;48.796;9.480;2022-12-18T16:29:19;67.57;;;35.15;;
1346;SDS011;667;48.796;9.480;2022-12-18T16:31:51;47.90;;;27.02;;
1346;SDS011;667;48.796;9.480;2022-12-18T16:34:25;54.25;;;28.23;;
1346;SDS011;667;48.796;9.480;2022-12-18T16:36:56;44.75;;;23.52;;
1346;SDS011;667;48.796;9.480;2022-12-18T16:39:23;43.22;;;24.63;;
1346;SDS011;667;48.796;9.480;2022-12-18T16:41:49;47.38;;;26.17;;
1346;SDS011;667;48.796;9.480;2022-12-18T16:44:15;43.03;;;25.57;;
1346;SDS011;667;48.796;9.480;2022-12-18T16:46:41;32.13;;;19.83;;
1346;SDS011;667;48.796;9.480;2022-12-18T16:49:16;35.53;;;20.17;;
1346;SDS011;667;48.796;9.480;2022-12-18T16:51:42;36.22;;;19.15;;
1346;SDS011;667;48.796;9.480;2022-12-18T16:54:09;47.47;;;27.80;;
1346;SDS011;667;48.796;9.480;2022-12-18T16:56:34;48.70;;;29.83;;
1346;SDS011;667;48.796;9.480;2022-12-18T16:59:00;24.93;;;14.97;;
1346;SDS011;667;48.796;9.480;2022-12-18T17:01:27;39.88;;;22.90;;
1346;SDS011;667;48.796;9.480;2022-12-18T17:03:54;33.33;;;19.63;;
1346;SDS011;667;48.796;9.480;2022-12-18T17:06:22;45.45;;;25.10;;
1346;SDS011;667;48.796;9.480;2022-12-18T17:09:03;37.20;;;21.83;;
1346;SDS011;667;48.796;9.480;2022-12-18T17:11:31;36.28;;;21.52;;
1346;SDS011;667;48.796;9.480;2022-12-18T17:13:58;31.77;;;17.95;;
1346;SDS011;667;48.796;9.480;2022-12-18T17:16:23;27.42;;;16.23;;
1346;SDS011;667;48.796;9.480;2022-12-18T17:18:51;32.65;;;18.15;;
1346;SDS011;667;48.796;9.480;2022-12-18T17:21:17;26.02;;;14.77;;
1346;SDS011;667;48.796;9.480;2022-12-18T17:23:43;29.67;;;16.10;;
1346;SDS011;667;48.796;9.480;2022-12-18T17:26:09;26.80;;;15.77;;